sensor_id;sensor_type;location;lat;lon;timestamp;P1;durP1;ratioP1;P2;durP2;ratioP2
26391;SDS011;14572;43.120;1.178;2023-02-28T07:26:16;6.40;;;3.63;;
26391;SDS011;14572;43.120;1.178;2023-02-28T07:28:44;4.63;;;3.50;;
26391;SDS011;14572;43.120;1.178;2023-02-28T07:31:12;6.57;;;4.00;;
26391;SDS011;14572;43.120;1.178;2023-02-28T07:33:40;5.60;;;4.23;;
26391;SDS011;14572;43.120;1.178;2023-02-28T07:36:09;5.80;;;4.53;;
26391;SDS011;14572;43.120;1.178;2023-02-28T07:38:41;6.23;;;4.40;;
26391;SDS011;14572;43.120;1.178;2023-02-28T07:41:09;5.63;;;4.17;;
26391;SDS011;14572;43.120;1.178;2023-02-28T07:43:37;5.87;;;4.40;;
26391;SDS011;14572;43.120;1.178;2023-02-28T07:46:05;5.63;;;4.40;;
26391;SDS011;14572;43.120;1.178;2023-02-28T07:48:33;8.27;;;4.53;;
26391;SDS011;14572;43.120;1.178;2023-02-28T07:51:01;8.37;;;4.73;;
26391;SDS011;14572;43.120;1.178;2023-02-28T07:53:28;6.20;;;3.80;;
26391;SDS011;14572;43.120;1.178;2023-02-28T07:55:55;6.13;;;4.50;;
26391;SDS011;14572;43.120;1.178;2023-02-28T07:58:23;9.43;;;4.73;;
26391;SDS011;14572;43.120;1.178;2023-02-28T08:00:52;7.47;;;4.40;;
26391;SDS011;14572;43.120;1.178;2023-02-28T08:03:19;5.07;;;4.10;;
26391;SDS011;14572;43.120;1.178;2023-02-28T08:05:47;5.80;;;4.07;;
26391;SDS011;14572;43.120;1.178;2023-02-28T08:08:15;6.20;;;4.17;;
26391;SDS011;14572;43.120;1.178;2023-02-28T08:10:42;6.27;;;4.50;;
26391;SDS011;14572;43.120;1.178;2023-02-28T08:13:09;6.07;;;4.07;;
26391;SDS011;14572;43.120;1.178;2023-02-28T08:15:36;8.07;;;4.40;;
26391;SDS011;14572;43.120;1.178;2023-02-28T08:18:05;6.50;;;4.03;;
26391;SDS011;14572;43.120;1.178;2023-02-28T08:20:32;7.83;;;4.30;;
26391;SDS011;14572;43.120;1.178;2023-02-28T08:22:59;6.37;;;4.27;;
26391;SDS011;14572;43.120;1.178;2023-02-28T08:25:26;6.17;;;4.33;;
26391;SDS011;14572;43.120;1.178;2023-02-28T08:27:53;9.60;;;4.53;;
26391;SDS011;14572;43.120;1.178;2023-02-28T08:30:20;6.90;;;4.07;;
26391;SDS011;14572;43.120;1.178;2023-02-28T08:32:48;7.20;;;4.50;;
26391;SDS011;14572;43.120;1.178;2023-02-28T08:35:16;6.80;;;4.20;;
26391;SDS011;14572;43.120;1.178;2023-02-28T08:37:43;8.03;;;4.70;;
26391;SDS011;14572;43.120;1.178;2023-02-28T08:40:10;7.97;;;4.70;;
26391;SDS011;14572;43.120;1.178;2023-02-28T08:42:43;5.10;;;3.70;;
26391;SDS011;14572;43.120;1.178;2023-02-28T08:45:10;7.30;;;4.20;;
26391;SDS011;14572;43.120;1.178;2023-02-28T08:47:37;7.27;;;4.20;;
26391;SDS011;14572;43.120;1.178;2023-02-28T08:50:05;5.10;;;3.70;;
26391;SDS011;14572;43.120;1.178;2023-02-28T08:52:34;5.33;;;3.80;;
26391;SDS011;14572;43.120;1.178;2023-02-28T08:55:01;6.67;;;3.67;;
26391;SDS011;14572;43.120;1.178;2023-02-28T08:57:28;6.80;;;3.90;;
26391;SDS011;14572;43.120;1.178;2023-02-28T08:59:54;5.97;;;3.50;;
26391;SDS011;14572;43.120;1.178;2023-02-28T09:02:22;5.70;;;3.43;;
26391;SDS011;14572;43.120;1.178;2023-02-28T09:04:49;4.20;;;3.13;;
26391;SDS011;14572;43.120;1.178;2023-02-28T09:07:16;7.00;;;3.90;;
26391;SDS011;14572;43.120;1.178;2023-02-28T09:09:44;8.77;;;3.87;;
26391;SDS011;14572;43.120;1.178;2023-02-28T09:12:19;5.37;;;3.30;;
26391;SDS011;14572;43.120;1.178;2023-02-28T09:14:47;4.17;;;3.30;;
26391;SDS011;14572;43.120;1.178;2023-02-28T09:17:14;6.60;;;3.53;;
26391;SDS011;14572;43.120;1.178;2023-02-28T09:19:41;5.20;;;3.93;;
26391;SDS011;14572;43.120;1.178;2023-02-28T09:22:08;4.73;;;3.37;;
26391;SDS011;14572;43.120;1.178;2023-02-28T09:24:36;4.60;;;3.00;;
26391;SDS011;14572;43.120;1.178;2023-02-28T09:27:05;6.33;;;3.67;;
26391;SDS011;14572;43.120;1.178;2023-02-28T09:29:32;6.13;;;3.27;;
26391;SDS011;14572;43.120;1.178;2023-02-28T09:32:00;4.97;;;3.47;;
